Endicott, Washington
Current Conditions -  °F | °C
As of 8:53 PM on Monday 20 Oct 2014 (Local Time) from KPUW Reporting Station
Overcast Overcast  
Wind Chill: 55°   Ceiling: 3500
Heat Index: 55°   Visibility: 7mi
Dew Point: 42°   Wind: 21mph
Humidity: 62%   Direction: 270°W
Pressure: 29.83"   Gusts: 31mph
Location:  46.93°N, 117.68°W
Report Text: KPUW 210353Z AUTO 27018G27KT 7SM FEW029 OVC035 13/06 A2983 RMK AO2 PK WND 28027/0351 SLP098 T01280056
Loading
Personal Weather Stations






























Interactive Weather Map
Tropical Storm Tracking
New forecast layout! Learn more

10-Day Weather Forecast

Advertisements
Track Severe Weather on mobile